Time,TemperatureF,DewpointF,PressureIn,WindDirection,WindDirectionDegrees,WindSpeedMPH,WindSpeedGustMPH,Humidity,HourlyPrecipIn,Conditions,Clouds,dailyrainin,SolarRadiationWatts/m^2,SoftwareType,DateUTC
2013-10-04 00:05:00,75.0,45.0,-100.00,SSW,195,4.0,7.0,34,0.00,,,0.00,1.000000,,2013-10-04 07:05:00,
2013-10-04 00:15:00,75.0,45.0,-100.00,SSW,195,4.0,7.0,34,0.00,,,0.00,1.000000,,2013-10-04 07:15:00,
2013-10-04 00:48:00,72.0,46.0,-100.00,WSW,239,3.0,7.0,39,0.00,,,0.00,1.000000,,2013-10-04 07:48:00,
2013-10-04 00:57:00,72.0,46.0,-100.00,WSW,239,3.0,7.0,39,0.00,,,0.00,1.000000,,2013-10-04 07:57:00,
2013-10-04 01:05:00,72.0,46.0,-100.00,WSW,239,3.0,7.0,39,0.00,,,0.00,1.000000,,2013-10-04 08:05:00,
2013-10-04 01:15:00,72.0,46.0,-100.00,WSW,239,3.0,7.0,39,0.00,,,0.00,1.000000,,2013-10-04 08:15:00,
2013-10-04 01:48:00,69.0,46.0,-100.00,WNW,287,1.0,8.0,44,0.00,,,0.00,1.000000,,2013-10-04 08:48:00,
2013-10-04 01:57:00,69.0,46.0,-100.00,WNW,287,1.0,8.0,44,0.00,,,0.00,1.000000,,2013-10-04 08:57:00,
2013-10-04 02:05:00,69.0,46.0,-100.00,WNW,287,1.0,8.0,44,0.00,,,0.00,1.000000,,2013-10-04 09:05:00,
2013-10-04 02:14:00,69.0,46.0,-100.00,WNW,287,1.0,8.0,44,0.00,,,0.00,1.000000,,2013-10-04 09:14:00,
2013-10-04 02:16:00,73.0,44.0,-100.00,NNE,23,3.0,8.0,35,0.00,,,0.00,1.000000,,2013-10-04 09:16:00,
2013-10-04 02:50:00,73.0,44.0,-100.00,NNE,23,3.0,8.0,35,0.00,,,0.00,1.000000,,2013-10-04 09:50:00,
2013-10-04 02:59:00,73.0,44.0,-100.00,NNE,23,3.0,8.0,35,0.00,,,0.00,1.000000,,2013-10-04 09:59:00,
2013-10-04 03:07:00,73.0,44.0,-100.00,NNE,23,3.0,8.0,35,0.00,,,0.00,1.000000,,2013-10-04 10:07:00,
2013-10-04 04:16:00,75.0,12.0,-100.00,NNE,14,16.0,24.0,9,0.00,,,0.00,1.000000,,2013-10-04 11:16:00,
2013-10-04 04:50:00,75.0,12.0,-100.00,NNE,14,16.0,24.0,9,0.00,,,0.00,1.000000,,2013-10-04 11:50:00,
2013-10-04 04:59:00,75.0,12.0,-100.00,NNE,14,16.0,24.0,9,0.00,,,0.00,1.000000,,2013-10-04 11:59:00,
2013-10-04 05:06:00,75.0,12.0,-100.00,NNE,14,16.0,24.0,9,0.00,,,0.00,1.000000,,2013-10-04 12:06:00,
2013-10-04 05:50:00,74.0,12.0,-100.00,NNE,20,18.0,31.0,9,0.00,,,0.00,1.000000,,2013-10-04 12:50:00,
2013-10-04 05:59:00,74.0,12.0,-100.00,NNE,20,18.0,31.0,9,0.00,,,0.00,1.000000,,2013-10-04 12:59:00,
2013-10-04 06:07:00,74.0,12.0,-100.00,NNE,20,18.0,31.0,9,0.00,,,0.00,1.000000,,2013-10-04 13:07:00,
2013-10-04 06:15:00,74.0,12.0,-100.00,NNE,20,18.0,31.0,9,0.00,,,0.00,1.000000,,2013-10-04 13:15:00,
2013-10-04 06:50:00,72.0,15.0,-100.00,NNE,20,0.0,24.0,11,0.00,,,0.00,1.000000,,2013-10-04 13:50:00,
2013-10-04 06:58:00,72.0,15.0,-100.00,NNE,20,0.0,24.0,11,0.00,,,0.00,1.000000,,2013-10-04 13:58:00,
2013-10-04 07:06:00,72.0,15.0,-100.00,NNE,20,0.0,24.0,11,0.00,,,0.00,1.000000,,2013-10-04 14:06:00,
2013-10-04 07:15:00,72.0,15.0,-100.00,NNE,20,0.0,24.0,11,0.00,,,0.00,1.000000,,2013-10-04 14:15:00,
2013-10-04 07:16:00,72.0,15.0,-100.00,NNE,22,0.0,0.0,11,0.00,,,0.00,27.000000,,2013-10-04 14:16:00,
2013-10-04 07:50:00,72.0,15.0,-100.00,NNE,22,0.0,0.0,11,0.00,,,0.00,27.000000,,2013-10-04 14:50:00,
2013-10-04 07:59:00,72.0,15.0,-100.00,NNE,22,0.0,0.0,11,0.00,,,0.00,27.000000,,2013-10-04 14:59:00,
2013-10-04 08:07:00,72.0,15.0,-100.00,NNE,22,0.0,0.0,11,0.00,,,0.00,27.000000,,2013-10-04 15:07:00,
2013-10-04 08:16:00,74.0,16.0,-100.00,NNE,16,0.0,0.0,11,0.00,,,0.00,207.000000,,2013-10-04 15:16:00,
2013-10-04 08:51:00,74.0,16.0,-100.00,NNE,16,0.0,0.0,11,0.00,,,0.00,207.000000,,2013-10-04 15:51:00,
2013-10-04 08:59:00,74.0,16.0,-100.00,NNE,16,0.0,0.0,11,0.00,,,0.00,207.000000,,2013-10-04 15:59:00,
2013-10-04 09:08:00,74.0,16.0,-100.00,NNE,16,0.0,0.0,11,0.00,,,0.00,207.000000,,2013-10-04 16:08:00,
2013-10-04 09:16:00,76.0,18.0,-100.00,NNE,15,0.0,0.0,11,0.00,,,0.00,425.000000,,2013-10-04 16:16:00,
2013-10-04 09:51:00,76.0,18.0,-100.00,NNE,15,0.0,0.0,11,0.00,,,0.00,425.000000,,2013-10-04 16:51:00,
2013-10-04 09:59:00,76.0,18.0,-100.00,NNE,15,0.0,0.0,11,0.00,,,0.00,425.000000,,2013-10-04 16:59:00,
2013-10-04 10:06:00,76.0,18.0,-100.00,NNE,15,0.0,0.0,11,0.00,,,0.00,425.000000,,2013-10-04 17:06:00,
2013-10-04 10:16:00,78.0,19.0,-100.00,North,10,0.0,0.0,11,0.00,,,0.00,624.000000,,2013-10-04 17:16:00,
2013-10-04 11:01:00,78.0,19.0,-100.00,North,10,0.0,0.0,11,0.00,,,0.00,624.000000,,2013-10-04 18:01:00,
2013-10-04 11:06:00,78.0,19.0,-100.00,North,10,0.0,0.0,11,0.00,,,0.00,624.000000,,2013-10-04 18:06:00,
2013-10-04 11:52:00,80.0,21.0,-100.00,North,357,15.0,24.0,11,0.00,,,0.00,777.000000,,2013-10-04 18:52:00,
2013-10-04 12:01:00,80.0,21.0,-100.00,North,357,15.0,24.0,11,0.00,,,0.00,777.000000,,2013-10-04 19:01:00,
2013-10-04 12:12:00,80.0,21.0,-100.00,North,357,15.0,24.0,11,0.00,,,0.00,777.000000,,2013-10-04 19:12:00,
2013-10-04 12:43:00,82.0,20.0,-100.00,North,7,17.0,26.0,10,0.00,,,0.00,861.000000,,2013-10-04 19:43:00,
2013-10-04 12:52:00,82.0,20.0,-100.00,North,7,17.0,26.0,10,0.00,,,0.00,861.000000,,2013-10-04 19:52:00,
2013-10-04 13:02:00,82.0,20.0,-100.00,North,7,17.0,26.0,10,0.00,,,0.00,861.000000,,2013-10-04 20:02:00,
2013-10-04 13:11:00,82.0,20.0,-100.00,North,7,17.0,26.0,10,0.00,,,0.00,861.000000,,2013-10-04 20:11:00,
2013-10-04 13:43:00,83.0,18.0,-100.00,North,358,15.0,27.0,9,0.00,,,0.00,883.000000,,2013-10-04 20:43:00,
2013-10-04 13:53:00,83.0,18.0,-100.00,North,358,15.0,27.0,9,0.00,,,0.00,883.000000,,2013-10-04 20:53:00,
2013-10-04 14:01:00,83.0,18.0,-100.00,North,358,15.0,27.0,9,0.00,,,0.00,883.000000,,2013-10-04 21:01:00,
2013-10-04 14:11:00,83.0,18.0,-100.00,North,358,15.0,27.0,9,0.00,,,0.00,883.000000,,2013-10-04 21:11:00,
2013-10-04 14:43:00,85.0,17.0,-100.00,NNE,12,14.0,24.0,8,0.00,,,0.00,825.000000,,2013-10-04 21:43:00,
2013-10-04 14:54:00,85.0,17.0,-100.00,NNE,12,14.0,24.0,8,0.00,,,0.00,825.000000,,2013-10-04 21:54:00,
2013-10-04 15:03:00,85.0,17.0,-100.00,NNE,12,14.0,24.0,8,0.00,,,0.00,825.000000,,2013-10-04 22:03:00,
2013-10-04 15:12:00,85.0,17.0,-100.00,NNE,12,14.0,24.0,8,0.00,,,0.00,825.000000,,2013-10-04 22:12:00,
2013-10-04 15:43:00,85.0,17.0,-100.00,North,6,15.0,24.0,8,0.00,,,0.00,700.000000,,2013-10-04 22:43:00,
2013-10-04 15:52:00,85.0,17.0,-100.00,North,6,15.0,24.0,8,0.00,,,0.00,700.000000,,2013-10-04 22:52:00,
2013-10-04 16:03:00,85.0,17.0,-100.00,North,6,15.0,24.0,8,0.00,,,0.00,700.000000,,2013-10-04 23:03:00,
2013-10-04 16:12:00,85.0,17.0,-100.00,North,6,15.0,24.0,8,0.00,,,0.00,700.000000,,2013-10-04 23:12:00,
2013-10-04 16:42:00,85.0,14.0,-100.00,North,4,17.0,25.0,7,0.00,,,0.00,523.000000,,2013-10-04 23:42:00,
2013-10-04 16:53:00,85.0,14.0,-100.00,North,4,17.0,25.0,7,0.00,,,0.00,523.000000,,2013-10-04 23:53:00,
2013-10-04 17:02:00,85.0,14.0,-100.00,North,4,17.0,25.0,7,0.00,,,0.00,523.000000,,2013-10-05 00:02:00,
2013-10-04 17:12:00,85.0,14.0,-100.00,North,4,17.0,25.0,7,0.00,,,0.00,523.000000,,2013-10-05 00:12:00,
2013-10-04 17:42:00,84.0,16.0,-100.00,North,360,13.0,26.0,8,0.00,,,0.00,310.000000,,2013-10-05 00:42:00,
2013-10-04 17:52:00,84.0,16.0,-100.00,North,360,13.0,26.0,8,0.00,,,0.00,310.000000,,2013-10-05 00:52:00,
2013-10-04 18:02:00,84.0,16.0,-100.00,North,360,13.0,26.0,8,0.00,,,0.00,310.000000,,2013-10-05 01:02:00,
2013-10-04 18:11:00,84.0,16.0,-100.00,North,360,13.0,26.0,8,0.00,,,0.00,310.000000,,2013-10-05 01:11:00,
2013-10-04 18:43:00,81.0,19.0,-100.00,North,357,0.0,19.0,10,0.00,,,0.00,91.000000,,2013-10-05 01:43:00,
2013-10-04 18:52:00,81.0,19.0,-100.00,North,357,0.0,19.0,10,0.00,,,0.00,91.000000,,2013-10-05 01:52:00,
2013-10-04 19:02:00,81.0,19.0,-100.00,North,357,0.0,19.0,10,0.00,,,0.00,91.000000,,2013-10-05 02:02:00,
2013-10-04 19:11:00,81.0,19.0,-100.00,North,357,0.0,19.0,10,0.00,,,0.00,91.000000,,2013-10-05 02:11:00,
2013-10-04 19:42:00,78.0,19.0,-100.00,North,358,10.0,18.0,11,0.00,,,0.00,2.000000,,2013-10-05 02:42:00,
2013-10-04 19:52:00,78.0,19.0,-100.00,North,358,10.0,18.0,11,0.00,,,0.00,2.000000,,2013-10-05 02:52:00,
2013-10-04 20:02:00,78.0,19.0,-100.00,North,358,10.0,18.0,11,0.00,,,0.00,2.000000,,2013-10-05 03:02:00,
2013-10-04 20:12:00,78.0,19.0,-100.00,North,358,10.0,18.0,11,0.00,,,0.00,2.000000,,2013-10-05 03:12:00,
2013-10-04 20:45:00,75.0,21.0,-100.00,North,358,6.0,14.0,13,0.00,,,0.00,1.000000,,2013-10-05 03:45:00,
2013-10-04 20:55:00,75.0,21.0,-100.00,North,358,6.0,14.0,13,0.00,,,0.00,1.000000,,2013-10-05 03:55:00,
2013-10-04 21:04:00,75.0,21.0,-100.00,North,358,6.0,14.0,13,0.00,,,0.00,1.000000,,2013-10-05 04:04:00,
2013-10-04 21:14:00,75.0,21.0,-100.00,North,358,6.0,14.0,13,0.00,,,0.00,1.000000,,2013-10-05 04:14:00,
2013-10-04 21:44:00,75.0,23.0,-100.00,North,354,11.0,18.0,14,0.00,,,0.00,1.000000,,2013-10-05 04:44:00,
2013-10-04 21:53:00,75.0,23.0,-100.00,North,354,11.0,18.0,14,0.00,,,0.00,1.000000,,2013-10-05 04:53:00,
2013-10-04 22:04:00,75.0,23.0,-100.00,North,354,11.0,18.0,14,0.00,,,0.00,1.000000,,2013-10-05 05:04:00,
2013-10-04 22:13:00,75.0,23.0,-100.00,North,354,11.0,18.0,14,0.00,,,0.00,1.000000,,2013-10-05 05:13:00,
2013-10-04 22:43:00,73.0,24.0,-100.00,NNW,344,8.0,15.0,16,0.00,,,0.00,1.000000,,2013-10-05 05:43:00,
2013-10-04 22:52:00,73.0,24.0,-100.00,NNW,344,8.0,15.0,16,0.00,,,0.00,1.000000,,2013-10-05 05:52:00,
2013-10-04 23:02:00,73.0,24.0,-100.00,NNW,344,8.0,15.0,16,0.00,,,0.00,1.000000,,2013-10-05 06:02:00,
2013-10-04 23:12:00,73.0,24.0,-100.00,NNW,344,8.0,15.0,16,0.00,,,0.00,1.000000,,2013-10-05 06:12:00,
2013-10-04 23:43:00,72.0,25.0,-100.00,NNW,342,9.0,14.0,17,0.00,,,0.00,1.000000,,2013-10-05 06:43:00,
2013-10-04 23:52:00,72.0,25.0,-100.00,NNW,342,9.0,14.0,17,0.00,,,0.00,1.000000,,2013-10-05 06:52:00,